sensor_id;sensor_type;location;lat;lon;timestamp;P1;durP1;ratioP1;P2;durP2;ratioP2
10863;SDS011;5485;37.558;126.950;2023-09-08T00:00:08;4.93;;;2.90;;
10863;SDS011;5485;37.558;126.950;2023-09-08T00:02:36;3.50;;;3.15;;
10863;SDS011;5485;37.558;126.950;2023-09-08T00:05:04;3.80;;;3.30;;
10863;SDS011;5485;37.558;126.950;2023-09-08T00:07:31;4.78;;;3.28;;
10863;SDS011;5485;37.558;126.950;2023-09-08T00:09:58;3.60;;;3.30;;
10863;SDS011;5485;37.558;126.950;2023-09-08T00:12:25;5.25;;;3.50;;
10863;SDS011;5485;37.558;126.950;2023-09-08T00:14:52;3.78;;;3.17;;
10863;SDS011;5485;37.558;126.950;2023-09-08T00:17:18;5.93;;;3.15;;
10863;SDS011;5485;37.558;126.950;2023-09-08T00:19:46;9.52;;;3.75;;
10863;SDS011;5485;37.558;126.950;2023-09-08T00:22:12;3.97;;;3.55;;
10863;SDS011;5485;37.558;126.950;2023-09-08T00:24:39;5.18;;;3.42;;
10863;SDS011;5485;37.558;126.950;2023-09-08T00:27:06;3.47;;;3.17;;
10863;SDS011;5485;37.558;126.950;2023-09-08T00:29:34;4.38;;;2.92;;
10863;SDS011;5485;37.558;126.950;2023-09-08T00:32:01;3.20;;;2.90;;
10863;SDS011;5485;37.558;126.950;2023-09-08T00:34:28;9.50;;;2.90;;
10863;SDS011;5485;37.558;126.950;2023-09-08T00:36:55;4.57;;;3.10;;
10863;SDS011;5485;37.558;126.950;2023-09-08T00:39:22;3.10;;;2.72;;
10863;SDS011;5485;37.558;126.950;2023-09-08T00:41:49;5.72;;;2.65;;
10863;SDS011;5485;37.558;126.950;2023-09-08T00:44:15;3.22;;;2.97;;
10863;SDS011;5485;37.558;126.950;2023-09-08T00:46:42;5.05;;;3.20;;
10863;SDS011;5485;37.558;126.950;2023-09-08T00:49:09;3.05;;;2.63;;
10863;SDS011;5485;37.558;126.950;2023-09-08T00:51:36;3.22;;;2.83;;
10863;SDS011;5485;37.558;126.950;2023-09-08T00:54:03;3.28;;;2.38;;
10863;SDS011;5485;37.558;126.950;2023-09-08T00:56:31;2.88;;;2.67;;
10863;SDS011;5485;37.558;126.950;2023-09-08T00:59:00;4.05;;;2.65;;
10863;SDS011;5485;37.558;126.950;2023-09-08T01:01:28;2.45;;;2.35;;
10863;SDS011;5485;37.558;126.950;2023-09-08T01:03:55;3.40;;;3.10;;
10863;SDS011;5485;37.558;126.950;2023-09-08T01:06:22;5.15;;;2.70;;
10863;SDS011;5485;37.558;126.950;2023-09-08T01:08:49;3.00;;;2.78;;
10863;SDS011;5485;37.558;126.950;2023-09-08T01:11:19;4.40;;;2.42;;
10863;SDS011;5485;37.558;126.950;2023-09-08T01:13:47;3.33;;;3.03;;
10863;SDS011;5485;37.558;126.950;2023-09-08T01:16:14;7.63;;;2.92;;
10863;SDS011;5485;37.558;126.950;2023-09-08T01:18:43;3.88;;;2.95;;
10863;SDS011;5485;37.558;126.950;2023-09-08T01:21:21;4.80;;;3.20;;
10863;SDS011;5485;37.558;126.950;2023-09-08T01:26:50;5.97;;;3.22;;
10863;SDS011;5485;37.558;126.950;2023-09-08T01:29:18;4.30;;;3.00;;
10863;SDS011;5485;37.558;126.950;2023-09-08T01:31:50;4.45;;;2.70;;
10863;SDS011;5485;37.558;126.950;2023-09-08T01:34:18;5.28;;;2.67;;
10863;SDS011;5485;37.558;126.950;2023-09-08T01:36:45;4.07;;;2.63;;
10863;SDS011;5485;37.558;126.950;2023-09-08T01:39:12;3.00;;;2.80;;
10863;SDS011;5485;37.558;126.950;2023-09-08T01:41:38;4.00;;;2.90;;
10863;SDS011;5485;37.558;126.950;2023-09-08T01:44:05;3.40;;;3.15;;
10863;SDS011;5485;37.558;126.950;2023-09-08T01:46:35;3.47;;;2.67;;
10863;SDS011;5485;37.558;126.950;2023-09-08T01:49:03;3.30;;;2.67;;
10863;SDS011;5485;37.558;126.950;2023-09-08T01:51:30;2.60;;;2.40;;
10863;SDS011;5485;37.558;126.950;2023-09-08T01:53:57;3.90;;;2.78;;
10863;SDS011;5485;37.558;126.950;2023-09-08T01:56:25;4.07;;;2.60;;
10863;SDS011;5485;37.558;126.950;2023-09-08T01:58:52;5.45;;;2.90;;
10863;SDS011;5485;37.558;126.950;2023-09-08T02:01:19;4.05;;;2.63;;
10863;SDS011;5485;37.558;126.950;2023-09-08T02:03:46;4.57;;;2.65;;
10863;SDS011;5485;37.558;126.950;2023-09-08T02:06:13;2.60;;;2.50;;
10863;SDS011;5485;37.558;126.950;2023-09-08T02:08:39;2.90;;;2.70;;
10863;SDS011;5485;37.558;126.950;2023-09-08T02:11:06;2.92;;;2.65;;
10863;SDS011;5485;37.558;126.950;2023-09-08T02:13:33;4.15;;;3.00;;
10863;SDS011;5485;37.558;126.950;2023-09-08T02:16:00;6.35;;;2.33;;
10863;SDS011;5485;37.558;126.950;2023-09-08T02:18:27;2.50;;;2.30;;
10863;SDS011;5485;37.558;126.950;2023-09-08T02:20:54;3.85;;;2.60;;
10863;SDS011;5485;37.558;126.950;2023-09-08T02:23:20;2.83;;;2.63;;
10863;SDS011;5485;37.558;126.950;2023-09-08T02:25:47;3.42;;;2.50;;
10863;SDS011;5485;37.558;126.950;2023-09-08T02:28:14;2.70;;;2.50;;
10863;SDS011;5485;37.558;126.950;2023-09-08T02:30:41;3.35;;;2.63;;
10863;SDS011;5485;37.558;126.950;2023-09-08T02:33:08;5.65;;;2.83;;
10863;SDS011;5485;37.558;126.950;2023-09-08T02:35:36;3.60;;;2.60;;
10863;SDS011;5485;37.558;126.950;2023-09-08T02:38:06;2.92;;;2.70;;
10863;SDS011;5485;37.558;126.950;2023-09-08T02:40:33;2.53;;;2.40;;
10863;SDS011;5485;37.558;126.950;2023-09-08T02:43:00;5.07;;;3.00;;
10863;SDS011;5485;37.558;126.950;2023-09-08T02:45:28;4.72;;;2.90;;
10863;SDS011;5485;37.558;126.950;2023-09-08T02:47:55;3.10;;;2.80;;
10863;SDS011;5485;37.558;126.950;2023-09-08T02:50:22;2.88;;;2.60;;
10863;SDS011;5485;37.558;126.950;2023-09-08T02:52:49;3.38;;;3.08;;
10863;SDS011;5485;37.558;126.950;2023-09-08T02:55:16;3.60;;;3.30;;
10863;SDS011;5485;37.558;126.950;2023-09-08T02:57:43;3.17;;;2.97;;
10863;SDS011;5485;37.558;126.950;2023-09-08T03:00:10;3.22;;;2.90;;
10863;SDS011;5485;37.558;126.950;2023-09-08T03:02:37;3.35;;;3.15;;
10863;SDS011;5485;37.558;126.950;2023-09-08T03:05:04;3.20;;;2.92;;
10863;SDS011;5485;37.558;126.950;2023-09-08T03:07:31;4.03;;;3.60;;
10863;SDS011;5485;37.558;126.950;2023-09-08T03:10:01;3.50;;;3.20;;
10863;SDS011;5485;37.558;126.950;2023-09-08T03:12:29;3.63;;;3.33;;
10863;SDS011;5485;37.558;126.950;2023-09-08T03:14:56;5.15;;;3.50;;
10863;SDS011;5485;37.558;126.950;2023-09-08T03:17:23;6.90;;;4.30;;
10863;SDS011;5485;37.558;126.950;2023-09-08T03:19:50;5.43;;;3.38;;
10863;SDS011;5485;37.558;126.950;2023-09-08T03:22:17;4.03;;;3.63;;
10863;SDS011;5485;37.558;126.950;2023-09-08T03:24:43;4.55;;;4.07;;
10863;SDS011;5485;37.558;126.950;2023-09-08T03:27:10;4.78;;;3.65;;
10863;SDS011;5485;37.558;126.950;2023-09-08T03:29:37;4.07;;;3.67;;
10863;SDS011;5485;37.558;126.950;2023-09-08T03:32:04;4.65;;;3.67;;
10863;SDS011;5485;37.558;126.950;2023-09-08T03:34:31;5.65;;;3.30;;
10863;SDS011;5485;37.558;126.950;2023-09-08T03:36:58;3.97;;;3.67;;
10863;SDS011;5485;37.558;126.950;2023-09-08T03:39:24;4.97;;;3.67;;
10863;SDS011;5485;37.558;126.950;2023-09-08T03:41:51;3.90;;;3.55;;
10863;SDS011;5485;37.558;126.950;2023-09-08T03:44:18;3.58;;;3.30;;
10863;SDS011;5485;37.558;126.950;2023-09-08T03:46:45;3.90;;;3.60;;
10863;SDS011;5485;37.558;126.950;2023-09-08T03:49:12;4.15;;;3.45;;
10863;SDS011;5485;37.558;126.950;2023-09-08T03:51:39;4.55;;;3.80;;
10863;SDS011;5485;37.558;126.950;2023-09-08T03:54:06;4.28;;;3.63;;
10863;SDS011;5485;37.558;126.950;2023-09-08T03:56:32;4.10;;;3.70;;
10863;SDS011;5485;37.558;126.950;2023-09-08T03:59:08;4.15;;;3.78;;
10863;SDS011;5485;37.558;126.950;2023-09-08T04:01:35;6.63;;;3.75;;
10863;SDS011;5485;37.558;126.950;2023-09-08T04:04:02;4.85;;;4.13;;
10863;SDS011;5485;37.558;126.950;2023-09-08T04:06:32;5.97;;;3.67;;
10863;SDS011;5485;37.558;126.950;2023-09-08T04:08:59;4.45;;;4.05;;
10863;SDS011;5485;37.558;126.950;2023-09-08T04:11:26;4.47;;;4.07;;
10863;SDS011;5485;37.558;126.950;2023-09-08T04:13:53;9.07;;;4.38;;
10863;SDS011;5485;37.558;126.950;2023-09-08T04:16:23;4.50;;;3.92;;
10863;SDS011;5485;37.558;126.950;2023-09-08T04:18:51;4.35;;;3.95;;
10863;SDS011;5485;37.558;126.950;2023-09-08T04:21:18;3.53;;;3.33;;
10863;SDS011;5485;37.558;126.950;2023-09-08T04:23:47;5.32;;;3.65;;
10863;SDS011;5485;37.558;126.950;2023-09-08T04:26:17;4.10;;;3.80;;
10863;SDS011;5485;37.558;126.950;2023-09-08T04:28:44;4.47;;;4.10;;
10863;SDS011;5485;37.558;126.950;2023-09-08T04:31:11;4.20;;;3.80;;
10863;SDS011;5485;37.558;126.950;2023-09-08T04:33:38;6.13;;;3.97;;
10863;SDS011;5485;37.558;126.950;2023-09-08T04:36:05;4.78;;;4.22;;
10863;SDS011;5485;37.558;126.950;2023-09-08T04:38:32;5.65;;;4.20;;
10863;SDS011;5485;37.558;126.950;2023-09-08T04:41:02;4.75;;;3.70;;
10863;SDS011;5485;37.558;126.950;2023-09-08T04:43:29;4.13;;;3.83;;
10863;SDS011;5485;37.558;126.950;2023-09-08T04:45:57;5.65;;;4.20;;
10863;SDS011;5485;37.558;126.950;2023-09-08T04:48:25;5.88;;;3.78;;
10863;SDS011;5485;37.558;126.950;2023-09-08T04:50:52;6.03;;;3.92;;
10863;SDS011;5485;37.558;126.950;2023-09-08T04:53:20;4.70;;;4.20;;
10863;SDS011;5485;37.558;126.950;2023-09-08T04:55:47;4.95;;;4.45;;
10863;SDS011;5485;37.558;126.950;2023-09-08T04:58:14;5.00;;;4.50;;
10863;SDS011;5485;37.558;126.950;2023-09-08T05:00:42;4.70;;;4.32;;
10863;SDS011;5485;37.558;126.950;2023-09-08T05:03:09;7.75;;;4.70;;
10863;SDS011;5485;37.558;126.950;2023-09-08T05:05:36;4.97;;;4.55;;
10863;SDS011;5485;37.558;126.950;2023-09-08T05:08:04;5.55;;;5.03;;
10863;SDS011;5485;37.558;126.950;2023-09-08T05:10:31;4.75;;;3.88;;
10863;SDS011;5485;37.558;126.950;2023-09-08T05:12:58;3.95;;;3.65;;
10863;SDS011;5485;37.558;126.950;2023-09-08T05:15:28;5.88;;;4.57;;
10863;SDS011;5485;37.558;126.950;2023-09-08T05:17:56;4.63;;;4.22;;
10863;SDS011;5485;37.558;126.950;2023-09-08T05:20:23;4.70;;;4.30;;
10863;SDS011;5485;37.558;126.950;2023-09-08T05:22:50;5.72;;;4.20;;
10863;SDS011;5485;37.558;126.950;2023-09-08T05:25:18;5.20;;;4.72;;
10863;SDS011;5485;37.558;126.950;2023-09-08T05:27:44;5.68;;;5.10;;
10863;SDS011;5485;37.558;126.950;2023-09-08T05:30:12;5.50;;;4.90;;
10863;SDS011;5485;37.558;126.950;2023-09-08T05:32:38;5.53;;;4.97;;
10863;SDS011;5485;37.558;126.950;2023-09-08T05:35:05;6.43;;;5.47;;
10863;SDS011;5485;37.558;126.950;2023-09-08T05:37:32;7.97;;;5.18;;
10863;SDS011;5485;37.558;126.950;2023-09-08T05:39:59;5.43;;;4.85;;
10863;SDS011;5485;37.558;126.950;2023-09-08T05:42:26;7.25;;;5.80;;
10863;SDS011;5485;37.558;126.950;2023-09-08T05:44:53;7.03;;;5.55;;
10863;SDS011;5485;37.558;126.950;2023-09-08T05:47:20;5.50;;;5.00;;
10863;SDS011;5485;37.558;126.950;2023-09-08T05:49:47;6.03;;;5.30;;
10863;SDS011;5485;37.558;126.950;2023-09-08T05:52:14;6.65;;;5.50;;
10863;SDS011;5485;37.558;126.950;2023-09-08T05:54:41;7.10;;;5.10;;
10863;SDS011;5485;37.558;126.950;2023-09-08T05:57:12;6.13;;;5.07;;
10863;SDS011;5485;37.558;126.950;2023-09-08T05:59:40;5.25;;;4.75;;
10863;SDS011;5485;37.558;126.950;2023-09-08T06:02:07;5.82;;;5.22;;
10863;SDS011;5485;37.558;126.950;2023-09-08T06:04:36;7.40;;;5.13;;
10863;SDS011;5485;37.558;126.950;2023-09-08T06:07:04;5.20;;;4.75;;
10863;SDS011;5485;37.558;126.950;2023-09-08T06:09:31;5.22;;;4.78;;
10863;SDS011;5485;37.558;126.950;2023-09-08T06:12:00;5.28;;;4.82;;
10863;SDS011;5485;37.558;126.950;2023-09-08T06:14:29;5.85;;;5.25;;
10863;SDS011;5485;37.558;126.950;2023-09-08T06:16:56;5.82;;;5.18;;
10863;SDS011;5485;37.558;126.950;2023-09-08T06:19:25;6.07;;;5.10;;
10863;SDS011;5485;37.558;126.950;2023-09-08T06:21:52;5.70;;;5.20;;
10863;SDS011;5485;37.558;126.950;2023-09-08T06:24:20;5.85;;;5.35;;
10863;SDS011;5485;37.558;126.950;2023-09-08T06:26:48;6.35;;;5.80;;
10863;SDS011;5485;37.558;126.950;2023-09-08T06:29:19;6.10;;;5.03;;
10863;SDS011;5485;37.558;126.950;2023-09-08T06:31:48;7.38;;;5.55;;
10863;SDS011;5485;37.558;126.950;2023-09-08T06:34:17;7.00;;;5.50;;
10863;SDS011;5485;37.558;126.950;2023-09-08T06:36:48;5.72;;;5.30;;
10863;SDS011;5485;37.558;126.950;2023-09-08T06:39:15;5.95;;;5.15;;
10863;SDS011;5485;37.558;126.950;2023-09-08T06:41:45;8.18;;;5.60;;
10863;SDS011;5485;37.558;126.950;2023-09-08T06:44:12;6.35;;;4.97;;
10863;SDS011;5485;37.558;126.950;2023-09-08T06:46:39;6.03;;;5.10;;
10863;SDS011;5485;37.558;126.950;2023-09-08T06:49:06;5.63;;;5.15;;
10863;SDS011;5485;37.558;126.950;2023-09-08T06:51:34;7.13;;;5.32;;
10863;SDS011;5485;37.558;126.950;2023-09-08T06:54:04;5.60;;;5.10;;
10863;SDS011;5485;37.558;126.950;2023-09-08T06:56:31;6.00;;;5.40;;
10863;SDS011;5485;37.558;126.950;2023-09-08T06:58:58;7.15;;;5.03;;
10863;SDS011;5485;37.558;126.950;2023-09-08T07:01:28;5.53;;;4.68;;
10863;SDS011;5485;37.558;126.950;2023-09-08T07:03:55;5.55;;;4.90;;
10863;SDS011;5485;37.558;126.950;2023-09-08T07:06:24;4.47;;;4.07;;
10863;SDS011;5485;37.558;126.950;2023-09-08T07:08:54;7.95;;;4.75;;
10863;SDS011;5485;37.558;126.950;2023-09-08T07:11:21;5.00;;;4.40;;
10863;SDS011;5485;37.558;126.950;2023-09-08T07:13:48;6.22;;;4.75;;
10863;SDS011;5485;37.558;126.950;2023-09-08T07:16:15;5.13;;;4.45;;
10863;SDS011;5485;37.558;126.950;2023-09-08T07:18:42;4.63;;;4.18;;
10863;SDS011;5485;37.558;126.950;2023-09-08T07:21:10;4.57;;;4.20;;
10863;SDS011;5485;37.558;126.950;2023-09-08T07:24:06;5.30;;;4.80;;
10863;SDS011;5485;37.558;126.950;2023-09-08T07:26:39;6.40;;;4.57;;
10863;SDS011;5485;37.558;126.950;2023-09-08T07:29:06;5.07;;;4.50;;
10863;SDS011;5485;37.558;126.950;2023-09-08T07:31:33;6.45;;;4.50;;
10863;SDS011;5485;37.558;126.950;2023-09-08T07:34:04;4.65;;;4.25;;
10863;SDS011;5485;37.558;126.950;2023-09-08T07:36:32;4.97;;;4.10;;
10863;SDS011;5485;37.558;126.950;2023-09-08T07:39:03;4.47;;;4.07;;
10863;SDS011;5485;37.558;126.950;2023-09-08T07:41:30;5.53;;;4.18;;
10863;SDS011;5485;37.558;126.950;2023-09-08T07:43:58;4.53;;;4.13;;
10863;SDS011;5485;37.558;126.950;2023-09-08T07:46:28;4.63;;;4.22;;
10863;SDS011;5485;37.558;126.950;2023-09-08T07:48:59;4.85;;;3.90;;
10863;SDS011;5485;37.558;126.950;2023-09-08T07:51:26;4.70;;;4.03;;
10863;SDS011;5485;37.558;126.950;2023-09-08T07:53:53;7.60;;;4.40;;
10863;SDS011;5485;37.558;126.950;2023-09-08T07:56:21;5.25;;;3.92;;
10863;SDS011;5485;37.558;126.950;2023-09-08T07:58:48;4.25;;;3.75;;
10863;SDS011;5485;37.558;126.950;2023-09-08T08:01:18;5.88;;;4.45;;
10863;SDS011;5485;37.558;126.950;2023-09-08T08:03:48;5.30;;;4.15;;
10863;SDS011;5485;37.558;126.950;2023-09-08T08:06:15;4.95;;;3.97;;
10863;SDS011;5485;37.558;126.950;2023-09-08T08:08:46;4.97;;;4.00;;
10863;SDS011;5485;37.558;126.950;2023-09-08T08:11:13;5.13;;;4.45;;
10863;SDS011;5485;37.558;126.950;2023-09-08T08:13:43;4.55;;;3.90;;
10863;SDS011;5485;37.558;126.950;2023-09-08T08:16:11;4.50;;;4.10;;
10863;SDS011;5485;37.558;126.950;2023-09-08T08:18:38;5.03;;;3.90;;
10863;SDS011;5485;37.558;126.950;2023-09-08T08:21:08;4.82;;;4.32;;
10863;SDS011;5485;37.558;126.950;2023-09-08T08:23:38;4.95;;;4.38;;
10863;SDS011;5485;37.558;126.950;2023-09-08T08:26:12;5.90;;;4.05;;
10863;SDS011;5485;37.558;126.950;2023-09-08T08:28:43;6.32;;;4.25;;
10863;SDS011;5485;37.558;126.950;2023-09-08T08:31:22;5.43;;;4.35;;
10863;SDS011;5485;37.558;126.950;2023-09-08T08:33:52;4.43;;;4.13;;
10863;SDS011;5485;37.558;126.950;2023-09-08T08:36:19;5.20;;;4.70;;
10863;SDS011;5485;37.558;126.950;2023-09-08T08:38:46;5.07;;;4.65;;
10863;SDS011;5485;37.558;126.950;2023-09-08T08:41:13;6.13;;;4.65;;
10863;SDS011;5485;37.558;126.950;2023-09-08T08:43:42;7.95;;;4.60;;
10863;SDS011;5485;37.558;126.950;2023-09-08T08:46:17;4.93;;;4.30;;
10863;SDS011;5485;37.558;126.950;2023-09-08T08:48:48;4.93;;;4.53;;
10863;SDS011;5485;37.558;126.950;2023-09-08T08:51:22;5.00;;;4.60;;
10863;SDS011;5485;37.558;126.950;2023-09-08T08:53:50;6.13;;;4.72;;
10863;SDS011;5485;37.558;126.950;2023-09-08T08:56:20;5.32;;;4.82;;
10863;SDS011;5485;37.558;126.950;2023-09-08T08:58:48;5.43;;;4.90;;
10863;SDS011;5485;37.558;126.950;2023-09-08T09:01:16;5.57;;;5.05;;
10863;SDS011;5485;37.558;126.950;2023-09-08T09:03:48;5.15;;;4.68;;
10863;SDS011;5485;37.558;126.950;2023-09-08T09:06:17;5.45;;;4.53;;
10863;SDS011;5485;37.558;126.950;2023-09-08T09:08:46;6.25;;;4.75;;
10863;SDS011;5485;37.558;126.950;2023-09-08T09:11:13;5.72;;;5.15;;
10863;SDS011;5485;37.558;126.950;2023-09-08T09:13:40;5.00;;;4.60;;
10863;SDS011;5485;37.558;126.950;2023-09-08T09:16:08;5.30;;;4.80;;
10863;SDS011;5485;37.558;126.950;2023-09-08T09:19:01;5.65;;;4.97;;
10863;SDS011;5485;37.558;126.950;2023-09-08T09:21:42;8.77;;;5.00;;
10863;SDS011;5485;37.558;126.950;2023-09-08T09:24:17;5.57;;;5.03;;
10863;SDS011;5485;37.558;126.950;2023-09-08T09:26:56;7.30;;;5.22;;
10863;SDS011;5485;37.558;126.950;2023-09-08T09:29:28;5.40;;;4.88;;
10863;SDS011;5485;37.558;126.950;2023-09-08T09:34:49;5.13;;;4.70;;
10863;SDS011;5485;37.558;126.950;2023-09-08T09:37:25;5.65;;;4.93;;
10863;SDS011;5485;37.558;126.950;2023-09-08T09:40:02;5.60;;;5.15;;
10863;SDS011;5485;37.558;126.950;2023-09-08T09:42:33;8.32;;;5.32;;
10863;SDS011;5485;37.558;126.950;2023-09-08T09:45:06;5.63;;;5.05;;
10863;SDS011;5485;37.558;126.950;2023-09-08T09:47:35;5.80;;;4.90;;
10863;SDS011;5485;37.558;126.950;2023-09-08T09:50:03;6.05;;;5.55;;
10863;SDS011;5485;37.558;126.950;2023-09-08T09:52:32;7.10;;;5.50;;
10863;SDS011;5485;37.558;126.950;2023-09-08T09:55:06;8.55;;;4.95;;
10863;SDS011;5485;37.558;126.950;2023-09-08T09:57:35;6.07;;;5.32;;
10863;SDS011;5485;37.558;126.950;2023-09-08T10:00:04;8.68;;;5.45;;
10863;SDS011;5485;37.558;126.950;2023-09-08T10:02:33;8.27;;;6.00;;
10863;SDS011;5485;37.558;126.950;2023-09-08T10:05:11;5.65;;;5.10;;
10863;SDS011;5485;37.558;126.950;2023-09-08T10:07:39;6.80;;;5.65;;
10863;SDS011;5485;37.558;126.950;2023-09-08T10:10:09;7.47;;;6.05;;
10863;SDS011;5485;37.558;126.950;2023-09-08T10:12:37;7.90;;;5.85;;
10863;SDS011;5485;37.558;126.950;2023-09-08T10:15:07;8.68;;;5.85;;
10863;SDS011;5485;37.558;126.950;2023-09-08T10:17:42;8.35;;;5.65;;
10863;SDS011;5485;37.558;126.950;2023-09-08T10:20:13;6.78;;;5.95;;
10863;SDS011;5485;37.558;126.950;2023-09-08T10:22:42;6.72;;;5.90;;
10863;SDS011;5485;37.558;126.950;2023-09-08T10:25:12;9.80;;;6.22;;
10863;SDS011;5485;37.558;126.950;2023-09-08T10:27:40;9.93;;;6.45;;
10863;SDS011;5485;37.558;126.950;2023-09-08T10:30:08;6.50;;;6.00;;
10863;SDS011;5485;37.558;126.950;2023-09-08T10:32:37;7.03;;;6.43;;
10863;SDS011;5485;37.558;126.950;2023-09-08T10:35:08;6.90;;;5.70;;
10863;SDS011;5485;37.558;126.950;2023-09-08T10:37:37;6.50;;;5.90;;
10863;SDS011;5485;37.558;126.950;2023-09-08T10:40:22;7.00;;;6.00;;
10863;SDS011;5485;37.558;126.950;2023-09-08T10:43:08;8.02;;;5.70;;
10863;SDS011;5485;37.558;126.950;2023-09-08T10:45:45;8.32;;;5.90;;
10863;SDS011;5485;37.558;126.950;2023-09-08T10:48:14;8.88;;;6.53;;
10863;SDS011;5485;37.558;126.950;2023-09-08T10:50:42;7.10;;;6.40;;
10863;SDS011;5485;37.558;126.950;2023-09-08T10:53:18;7.28;;;6.50;;
10863;SDS011;5485;37.558;126.950;2023-09-08T10:55:49;7.03;;;6.03;;
10863;SDS011;5485;37.558;126.950;2023-09-08T10:58:30;6.93;;;6.05;;
10863;SDS011;5485;37.558;126.950;2023-09-08T11:01:07;8.73;;;6.47;;
10863;SDS011;5485;37.558;126.950;2023-09-08T11:06:11;10.90;;;6.25;;
10863;SDS011;5485;37.558;126.950;2023-09-08T11:08:42;6.70;;;5.95;;
10863;SDS011;5485;37.558;126.950;2023-09-08T11:11:14;10.70;;;6.60;;
10863;SDS011;5485;37.558;126.950;2023-09-08T11:13:42;7.18;;;6.47;;
10863;SDS011;5485;37.558;126.950;2023-09-08T11:16:13;8.07;;;6.80;;
10863;SDS011;5485;37.558;126.950;2023-09-08T11:18:50;10.23;;;6.97;;
10863;SDS011;5485;37.558;126.950;2023-09-08T11:21:21;7.97;;;7.03;;
10863;SDS011;5485;37.558;126.950;2023-09-08T11:23:49;7.78;;;6.78;;
10863;SDS011;5485;37.558;126.950;2023-09-08T11:26:19;7.88;;;7.15;;
10863;SDS011;5485;37.558;126.950;2023-09-08T11:28:51;7.70;;;6.97;;
10863;SDS011;5485;37.558;126.950;2023-09-08T11:31:19;7.43;;;6.80;;
10863;SDS011;5485;37.558;126.950;2023-09-08T11:33:48;7.50;;;6.80;;
10863;SDS011;5485;37.558;126.950;2023-09-08T11:36:20;7.95;;;7.25;;
10863;SDS011;5485;37.558;126.950;2023-09-08T11:38:52;9.82;;;7.10;;
10863;SDS011;5485;37.558;126.950;2023-09-08T11:41:20;7.65;;;6.90;;
10863;SDS011;5485;37.558;126.950;2023-09-08T11:43:49;11.27;;;7.65;;
10863;SDS011;5485;37.558;126.950;2023-09-08T11:46:17;7.50;;;6.90;;
10863;SDS011;5485;37.558;126.950;2023-09-08T11:48:46;8.23;;;6.72;;
10863;SDS011;5485;37.558;126.950;2023-09-08T11:51:14;8.02;;;7.22;;
10863;SDS011;5485;37.558;126.950;2023-09-08T11:53:42;7.45;;;6.85;;
10863;SDS011;5485;37.558;126.950;2023-09-08T11:56:10;8.88;;;7.55;;
10863;SDS011;5485;37.558;126.950;2023-09-08T11:58:38;7.45;;;6.68;;
10863;SDS011;5485;37.558;126.950;2023-09-08T12:01:08;10.40;;;7.82;;
10863;SDS011;5485;37.558;126.950;2023-09-08T12:03:50;8.00;;;7.20;;
10863;SDS011;5485;37.558;126.950;2023-09-08T12:06:19;8.07;;;7.15;;
10863;SDS011;5485;37.558;126.950;2023-09-08T12:08:49;7.10;;;6.53;;
10863;SDS011;5485;37.558;126.950;2023-09-08T12:11:18;9.25;;;6.60;;
10863;SDS011;5485;37.558;126.950;2023-09-08T12:13:46;7.53;;;6.75;;
10863;SDS011;5485;37.558;126.950;2023-09-08T12:16:20;9.38;;;7.05;;
10863;SDS011;5485;37.558;126.950;2023-09-08T12:18:49;8.38;;;7.57;;
10863;SDS011;5485;37.558;126.950;2023-09-08T12:21:16;8.40;;;7.15;;
10863;SDS011;5485;37.558;126.950;2023-09-08T12:23:51;7.63;;;6.93;;
10863;SDS011;5485;37.558;126.950;2023-09-08T12:26:20;7.90;;;7.10;;
10863;SDS011;5485;37.558;126.950;2023-09-08T12:28:50;9.25;;;6.88;;
10863;SDS011;5485;37.558;126.950;2023-09-08T12:31:19;7.78;;;6.95;;
10863;SDS011;5485;37.558;126.950;2023-09-08T12:33:47;9.15;;;7.20;;
10863;SDS011;5485;37.558;126.950;2023-09-08T12:36:16;10.48;;;7.53;;
10863;SDS011;5485;37.558;126.950;2023-09-08T12:38:47;8.63;;;7.70;;
10863;SDS011;5485;37.558;126.950;2023-09-08T12:41:19;9.27;;;8.35;;
10863;SDS011;5485;37.558;126.950;2023-09-08T12:43:47;8.00;;;7.28;;
10863;SDS011;5485;37.558;126.950;2023-09-08T12:46:16;8.98;;;7.90;;
10863;SDS011;5485;37.558;126.950;2023-09-08T12:48:45;8.50;;;7.22;;
10863;SDS011;5485;37.558;126.950;2023-09-08T12:51:13;10.38;;;8.20;;
10863;SDS011;5485;37.558;126.950;2023-09-08T12:53:41;11.65;;;7.85;;
10863;SDS011;5485;37.558;126.950;2023-09-08T12:56:21;8.10;;;7.20;;
10863;SDS011;5485;37.558;126.950;2023-09-08T12:59:00;8.05;;;7.25;;
10863;SDS011;5485;37.558;126.950;2023-09-08T13:01:29;11.40;;;7.60;;
10863;SDS011;5485;37.558;126.950;2023-09-08T13:03:57;13.32;;;7.97;;
10863;SDS011;5485;37.558;126.950;2023-09-08T13:06:25;8.10;;;7.50;;
10863;SDS011;5485;37.558;126.950;2023-09-08T13:08:54;8.70;;;8.00;;
10863;SDS011;5485;37.558;126.950;2023-09-08T13:11:22;10.15;;;7.30;;
10863;SDS011;5485;37.558;126.950;2023-09-08T13:13:53;8.80;;;7.82;;
10863;SDS011;5485;37.558;126.950;2023-09-08T13:16:25;9.38;;;8.57;;
10863;SDS011;5485;37.558;126.950;2023-09-08T13:18:52;13.35;;;8.77;;
10863;SDS011;5485;37.558;126.950;2023-09-08T13:21:20;9.43;;;8.30;;
10863;SDS011;5485;37.558;126.950;2023-09-08T13:23:49;11.15;;;8.80;;
10863;SDS011;5485;37.558;126.950;2023-09-08T13:26:21;10.00;;;8.77;;
10863;SDS011;5485;37.558;126.950;2023-09-08T13:28:49;9.27;;;7.60;;
10863;SDS011;5485;37.558;126.950;2023-09-08T13:31:18;12.15;;;7.80;;
10863;SDS011;5485;37.558;126.950;2023-09-08T13:33:49;8.70;;;7.90;;
10863;SDS011;5485;37.558;126.950;2023-09-08T13:36:17;10.00;;;8.10;;
10863;SDS011;5485;37.558;126.950;2023-09-08T13:38:46;9.70;;;7.97;;
10863;SDS011;5485;37.558;126.950;2023-09-08T13:41:20;8.93;;;8.02;;
10863;SDS011;5485;37.558;126.950;2023-09-08T13:43:50;9.68;;;8.65;;
10863;SDS011;5485;37.558;126.950;2023-09-08T13:46:19;8.55;;;7.75;;
10863;SDS011;5485;37.558;126.950;2023-09-08T13:48:47;13.18;;;8.18;;
10863;SDS011;5485;37.558;126.950;2023-09-08T13:51:16;9.52;;;8.55;;
10863;SDS011;5485;37.558;126.950;2023-09-08T13:53:45;8.43;;;7.68;;
10863;SDS011;5485;37.558;126.950;2023-09-08T13:56:14;11.25;;;8.60;;
10863;SDS011;5485;37.558;126.950;2023-09-08T13:58:42;8.60;;;7.78;;
10863;SDS011;5485;37.558;126.950;2023-09-08T14:01:11;9.80;;;8.80;;
10863;SDS011;5485;37.558;126.950;2023-09-08T14:03:42;13.23;;;9.65;;
10863;SDS011;5485;37.558;126.950;2023-09-08T14:06:10;10.98;;;9.02;;
10863;SDS011;5485;37.558;126.950;2023-09-08T14:08:41;10.70;;;8.13;;
10863;SDS011;5485;37.558;126.950;2023-09-08T14:11:09;9.93;;;7.53;;
10863;SDS011;5485;37.558;126.950;2023-09-08T14:13:41;9.40;;;8.55;;
10863;SDS011;5485;37.558;126.950;2023-09-08T14:16:13;9.90;;;8.50;;
10863;SDS011;5485;37.558;126.950;2023-09-08T14:18:41;10.30;;;8.10;;
10863;SDS011;5485;37.558;126.950;2023-09-08T14:21:14;10.80;;;8.77;;
10863;SDS011;5485;37.558;126.950;2023-09-08T14:23:42;10.85;;;8.38;;
10863;SDS011;5485;37.558;126.950;2023-09-08T14:26:11;10.38;;;8.88;;
10863;SDS011;5485;37.558;126.950;2023-09-08T14:28:39;10.63;;;8.32;;
10863;SDS011;5485;37.558;126.950;2023-09-08T14:31:07;11.00;;;8.90;;
10863;SDS011;5485;37.558;126.950;2023-09-08T14:33:36;10.82;;;8.18;;
10863;SDS011;5485;37.558;126.950;2023-09-08T14:36:05;9.63;;;8.70;;
10863;SDS011;5485;37.558;126.950;2023-09-08T14:38:34;9.88;;;9.07;;
10863;SDS011;5485;37.558;126.950;2023-09-08T14:41:04;8.75;;;7.95;;
10863;SDS011;5485;37.558;126.950;2023-09-08T14:43:31;10.93;;;9.20;;
10863;SDS011;5485;37.558;126.950;2023-09-08T14:46:00;10.55;;;9.20;;
10863;SDS011;5485;37.558;126.950;2023-09-08T14:48:33;9.85;;;8.52;;
10863;SDS011;5485;37.558;126.950;2023-09-08T14:51:02;10.18;;;9.25;;